sensor_id;sensor_type;location;lat;lon;timestamp;temperature;humidity
59067;DHT22;44854;50.838;4.438;2022-09-09T05:34:31;16.30;99.90
59067;DHT22;44854;50.838;4.438;2022-09-09T05:36:57;16.20;99.90
59067;DHT22;44854;50.838;4.438;2022-09-09T05:39:23;16.30;99.90
59067;DHT22;44854;50.838;4.438;2022-09-09T05:41:49;16.30;99.90
59067;DHT22;44854;50.838;4.438;2022-09-09T05:44:14;16.40;99.90
59067;DHT22;44854;50.838;4.438;2022-09-09T05:46:40;16.40;99.90
59067;DHT22;44854;50.838;4.438;2022-09-09T05:49:05;16.40;99.90
59067;DHT22;44854;50.838;4.438;2022-09-09T05:51:31;16.50;99.90
59067;DHT22;44854;50.838;4.438;2022-09-09T05:53:56;16.50;99.90
59067;DHT22;44854;50.838;4.438;2022-09-09T05:56:26;16.40;99.90
59067;DHT22;44854;50.838;4.438;2022-09-09T05:58:52;16.40;99.90
59067;DHT22;44854;50.838;4.438;2022-09-09T06:01:25;16.40;99.90
59067;DHT22;44854;50.838;4.438;2022-09-09T06:03:54;16.40;99.90
59067;DHT22;44854;50.838;4.438;2022-09-09T06:06:21;16.50;99.90
59067;DHT22;44854;50.838;4.438;2022-09-09T06:08:46;16.50;99.90
59067;DHT22;44854;50.838;4.438;2022-09-09T06:11:13;16.60;99.90
59067;DHT22;44854;50.838;4.438;2022-09-09T06:13:39;16.60;99.90
59067;DHT22;44854;50.838;4.438;2022-09-09T06:16:06;16.70;99.90
59067;DHT22;44854;50.838;4.438;2022-09-09T06:18:33;16.70;99.90
59067;DHT22;44854;50.838;4.438;2022-09-09T06:21:00;16.80;99.90
59067;DHT22;44854;50.838;4.438;2022-09-09T06:23:26;16.70;99.90
59067;DHT22;44854;50.838;4.438;2022-09-09T06:26:28;16.80;99.90
59067;DHT22;44854;50.838;4.438;2022-09-09T06:28:47;16.80;99.90
59067;DHT22;44854;50.838;4.438;2022-09-09T06:31:13;16.70;99.90
59067;DHT22;44854;50.838;4.438;2022-09-09T06:33:40;16.80;99.90
59067;DHT22;44854;50.838;4.438;2022-09-09T06:36:31;16.80;99.90
59067;DHT22;44854;50.838;4.438;2022-09-09T06:38:56;16.90;99.90
59067;DHT22;44854;50.838;4.438;2022-09-09T06:41:22;16.90;99.90
59067;DHT22;44854;50.838;4.438;2022-09-09T06:43:48;17.10;99.90
59067;DHT22;44854;50.838;4.438;2022-09-09T06:46:15;17.10;99.90
59067;DHT22;44854;50.838;4.438;2022-09-09T06:48:41;17.10;99.90
59067;DHT22;44854;50.838;4.438;2022-09-09T06:51:08;17.00;99.90
59067;DHT22;44854;50.838;4.438;2022-09-09T06:53:35;17.10;99.90
59067;DHT22;44854;50.838;4.438;2022-09-09T06:58:50;17.20;99.90
59067;DHT22;44854;50.838;4.438;2022-09-09T07:01:20;17.30;99.90
59067;DHT22;44854;50.838;4.438;2022-09-09T07:03:47;17.30;99.90
59067;DHT22;44854;50.838;4.438;2022-09-09T07:06:20;17.30;99.90
59067;DHT22;44854;50.838;4.438;2022-09-09T07:08:53;17.30;99.90
59067;DHT22;44854;50.838;4.438;2022-09-09T07:11:19;17.30;99.90
59067;DHT22;44854;50.838;4.438;2022-09-09T07:13:45;17.40;99.90
59067;DHT22;44854;50.838;4.438;2022-09-09T07:16:12;17.40;99.90
59067;DHT22;44854;50.838;4.438;2022-09-09T07:18:38;17.40;99.90
59067;DHT22;44854;50.838;4.438;2022-09-09T07:21:04;17.40;99.90
59067;DHT22;44854;50.838;4.438;2022-09-09T07:23:30;17.40;99.90
59067;DHT22;44854;50.838;4.438;2022-09-09T07:25:56;17.40;99.90
59067;DHT22;44854;50.838;4.438;2022-09-09T07:28:23;17.40;99.90
59067;DHT22;44854;50.838;4.438;2022-09-09T07:30:55;17.40;99.90
59067;DHT22;44854;50.838;4.438;2022-09-09T07:33:21;17.40;99.90
59067;DHT22;44854;50.838;4.438;2022-09-09T07:35:47;17.40;99.90
59067;DHT22;44854;50.838;4.438;2022-09-09T07:38:13;17.40;99.90
59067;DHT22;44854;50.838;4.438;2022-09-09T07:40:38;17.40;99.90
59067;DHT22;44854;50.838;4.438;2022-09-09T07:43:04;17.50;99.90
59067;DHT22;44854;50.838;4.438;2022-09-09T07:45:30;17.50;99.90
59067;DHT22;44854;50.838;4.438;2022-09-09T07:47:57;17.40;99.90
59067;DHT22;44854;50.838;4.438;2022-09-09T07:50:23;17.50;99.90
59067;DHT22;44854;50.838;4.438;2022-09-09T07:52:50;17.40;99.90
59067;DHT22;44854;50.838;4.438;2022-09-09T07:55:16;17.20;99.90
59067;DHT22;44854;50.838;4.438;2022-09-09T07:57:41;17.20;99.90
59067;DHT22;44854;50.838;4.438;2022-09-09T08:00:07;17.10;99.90
59067;DHT22;44854;50.838;4.438;2022-09-09T08:02:33;17.20;99.90
59067;DHT22;44854;50.838;4.438;2022-09-09T08:04:58;17.20;99.90
59067;DHT22;44854;50.838;4.438;2022-09-09T08:07:24;17.20;99.90
59067;DHT22;44854;50.838;4.438;2022-09-09T08:09:49;17.30;99.90
59067;DHT22;44854;50.838;4.438;2022-09-09T08:12:16;17.40;99.90
59067;DHT22;44854;50.838;4.438;2022-09-09T08:14:41;17.60;99.90
59067;DHT22;44854;50.838;4.438;2022-09-09T08:17:07;17.70;99.90
59067;DHT22;44854;50.838;4.438;2022-09-09T08:19:32;17.90;99.90
59067;DHT22;44854;50.838;4.438;2022-09-09T08:22:01;17.70;99.90
59067;DHT22;44854;50.838;4.438;2022-09-09T08:24:28;17.80;99.90
59067;DHT22;44854;50.838;4.438;2022-09-09T08:26:53;17.70;99.90
59067;DHT22;44854;50.838;4.438;2022-09-09T08:29:19;17.70;99.90
59067;DHT22;44854;50.838;4.438;2022-09-09T08:34:11;17.90;99.90
59067;DHT22;44854;50.838;4.438;2022-09-09T08:36:38;17.90;99.90
59067;DHT22;44854;50.838;4.438;2022-09-09T08:39:04;17.90;99.90
59067;DHT22;44854;50.838;4.438;2022-09-09T08:52:21;18.20;99.90
59067;DHT22;44854;50.838;4.438;2022-09-09T08:54:47;18.10;99.90
59067;DHT22;44854;50.838;4.438;2022-09-09T08:57:23;18.10;99.90
59067;DHT22;44854;50.838;4.438;2022-09-09T08:59:52;18.00;99.90
59067;DHT22;44854;50.838;4.438;2022-09-09T09:10:34;18.10;99.90
59067;DHT22;44854;50.838;4.438;2022-09-09T09:13:07;18.10;99.90
59067;DHT22;44854;50.838;4.438;2022-09-09T09:15:37;18.10;99.90
59067;DHT22;44854;50.838;4.438;2022-09-09T09:18:04;17.90;99.90
59067;DHT22;44854;50.838;4.438;2022-09-09T09:20:54;17.90;99.90
59067;DHT22;44854;50.838;4.438;2022-09-09T09:23:24;18.00;99.90
59067;DHT22;44854;50.838;4.438;2022-09-09T09:25:50;18.00;99.90
59067;DHT22;44854;50.838;4.438;2022-09-09T09:28:18;17.90;99.90
59067;DHT22;44854;50.838;4.438;2022-09-09T09:30:52;17.90;99.90
59067;DHT22;44854;50.838;4.438;2022-09-09T09:35:50;17.80;99.90
59067;DHT22;44854;50.838;4.438;2022-09-09T09:38:17;17.90;99.90
59067;DHT22;44854;50.838;4.438;2022-09-09T09:40:56;17.80;99.90
59067;DHT22;44854;50.838;4.438;2022-09-09T09:43:33;17.70;99.90
59067;DHT22;44854;50.838;4.438;2022-09-09T09:45:59;17.70;99.90
59067;DHT22;44854;50.838;4.438;2022-09-09T09:48:25;17.60;99.90
59067;DHT22;44854;50.838;4.438;2022-09-09T09:50:55;17.70;99.90
59067;DHT22;44854;50.838;4.438;2022-09-09T09:53:24;17.70;99.90
59067;DHT22;44854;50.838;4.438;2022-09-09T09:55:57;17.80;99.90
59067;DHT22;44854;50.838;4.438;2022-09-09T09:58:23;17.70;99.90
59067;DHT22;44854;50.838;4.438;2022-09-09T10:00:50;17.80;99.90
59067;DHT22;44854;50.838;4.438;2022-09-09T10:03:33;17.90;99.90
59067;DHT22;44854;50.838;4.438;2022-09-09T10:06:05;17.70;99.90
59067;DHT22;44854;50.838;4.438;2022-09-09T10:08:33;17.80;99.90
59067;DHT22;44854;50.838;4.438;2022-09-09T10:11:02;17.90;99.90
59067;DHT22;44854;50.838;4.438;2022-09-09T10:16:18;18.00;99.90
59067;DHT22;44854;50.838;4.438;2022-09-09T10:26:28;17.90;99.90
59067;DHT22;44854;50.838;4.438;2022-09-09T10:31:45;17.80;99.90
59067;DHT22;44854;50.838;4.438;2022-09-09T10:36:49;17.80;99.90
59067;DHT22;44854;50.838;4.438;2022-09-09T10:39:31;17.90;99.90
59067;DHT22;44854;50.838;4.438;2022-09-09T10:42:04;18.10;99.90
59067;DHT22;44854;50.838;4.438;2022-09-09T10:52:30;18.30;99.90
59067;DHT22;44854;50.838;4.438;2022-09-09T10:55:02;18.30;99.90
59067;DHT22;44854;50.838;4.438;2022-09-09T10:57:41;18.20;99.90
59067;DHT22;44854;50.838;4.438;2022-09-09T11:00:19;18.40;99.90
59067;DHT22;44854;50.838;4.438;2022-09-09T11:02:47;18.60;99.90
59067;DHT22;44854;50.838;4.438;2022-09-09T11:07:40;19.00;99.90
59067;DHT22;44854;50.838;4.438;2022-09-09T11:10:17;18.90;99.90
59067;DHT22;44854;50.838;4.438;2022-09-09T11:12:44;19.10;99.90
59067;DHT22;44854;50.838;4.438;2022-09-09T11:15:18;19.10;99.90
59067;DHT22;44854;50.838;4.438;2022-09-09T11:17:47;19.10;99.90
59067;DHT22;44854;50.838;4.438;2022-09-09T11:20:14;18.90;99.90
59067;DHT22;44854;50.838;4.438;2022-09-09T11:22:43;19.00;99.90
59067;DHT22;44854;50.838;4.438;2022-09-09T11:25:25;19.10;99.90
59067;DHT22;44854;50.838;4.438;2022-09-09T11:28:11;19.20;99.90
59067;DHT22;44854;50.838;4.438;2022-09-09T11:30:55;19.30;99.90
59067;DHT22;44854;50.838;4.438;2022-09-09T11:36:20;19.20;99.90
59067;DHT22;44854;50.838;4.438;2022-09-09T11:38:50;19.20;99.90
59067;DHT22;44854;50.838;4.438;2022-09-09T11:41:17;19.20;99.90
59067;DHT22;44854;50.838;4.438;2022-09-09T11:43:52;19.30;99.90
59067;DHT22;44854;50.838;4.438;2022-09-09T11:46:21;19.10;99.90
59067;DHT22;44854;50.838;4.438;2022-09-09T11:51:34;19.10;99.90
59067;DHT22;44854;50.838;4.438;2022-09-09T11:56:58;19.10;99.90
59067;DHT22;44854;50.838;4.438;2022-09-09T11:59:27;19.00;99.90
59067;DHT22;44854;50.838;4.438;2022-09-09T12:04:27;19.20;99.90
59067;DHT22;44854;50.838;4.438;2022-09-09T12:11:51;19.50;99.90
59067;DHT22;44854;50.838;4.438;2022-09-09T12:14:22;19.40;99.90
59067;DHT22;44854;50.838;4.438;2022-09-09T12:16:48;19.20;99.90
59067;DHT22;44854;50.838;4.438;2022-09-09T12:19:16;19.20;99.90
59067;DHT22;44854;50.838;4.438;2022-09-09T12:21:49;19.20;99.90
59067;DHT22;44854;50.838;4.438;2022-09-09T12:24:26;19.30;99.90
59067;DHT22;44854;50.838;4.438;2022-09-09T12:26:55;19.30;99.90
59067;DHT22;44854;50.838;4.438;2022-09-09T12:29:27;19.10;99.90
59067;DHT22;44854;50.838;4.438;2022-09-09T12:34:38;19.30;99.90
59067;DHT22;44854;50.838;4.438;2022-09-09T12:42:39;19.60;99.90
59067;DHT22;44854;50.838;4.438;2022-09-09T12:45:14;19.80;99.90
59067;DHT22;44854;50.838;4.438;2022-09-09T12:47:49;19.90;99.90
59067;DHT22;44854;50.838;4.438;2022-09-09T12:50:16;20.00;99.90
59067;DHT22;44854;50.838;4.438;2022-09-09T12:52:43;20.00;99.90
59067;DHT22;44854;50.838;4.438;2022-09-09T12:55:16;20.10;99.90
59067;DHT22;44854;50.838;4.438;2022-09-09T12:57:42;20.10;99.90
59067;DHT22;44854;50.838;4.438;2022-09-09T13:02:44;20.30;99.90
59067;DHT22;44854;50.838;4.438;2022-09-09T13:05:14;20.70;99.90
59067;DHT22;44854;50.838;4.438;2022-09-09T13:07:41;20.90;99.90
59067;DHT22;44854;50.838;4.438;2022-09-09T13:10:12;20.70;99.90
59067;DHT22;44854;50.838;4.438;2022-09-09T13:12:38;20.50;99.90
59067;DHT22;44854;50.838;4.438;2022-09-09T13:15:03;20.10;99.90
59067;DHT22;44854;50.838;4.438;2022-09-09T13:17:29;20.10;99.90
59067;DHT22;44854;50.838;4.438;2022-09-09T13:19:55;20.30;99.90
59067;DHT22;44854;50.838;4.438;2022-09-09T13:22:27;20.50;99.90
59067;DHT22;44854;50.838;4.438;2022-09-09T13:25:00;20.60;99.90
59067;DHT22;44854;50.838;4.438;2022-09-09T13:27:28;20.60;99.90
59067;DHT22;44854;50.838;4.438;2022-09-09T13:29:54;20.40;99.90
59067;DHT22;44854;50.838;4.438;2022-09-09T13:32:21;20.40;99.90
59067;DHT22;44854;50.838;4.438;2022-09-09T13:34:57;20.70;99.90
59067;DHT22;44854;50.838;4.438;2022-09-09T13:37:43;20.90;99.90
59067;DHT22;44854;50.838;4.438;2022-09-09T13:40:18;20.90;99.90
59067;DHT22;44854;50.838;4.438;2022-09-09T13:42:44;20.90;99.90
59067;DHT22;44854;50.838;4.438;2022-09-09T13:45:17;21.00;99.90
59067;DHT22;44854;50.838;4.438;2022-09-09T13:47:43;21.00;99.90
59067;DHT22;44854;50.838;4.438;2022-09-09T13:52:46;20.80;99.90
59067;DHT22;44854;50.838;4.438;2022-09-09T13:55:12;21.00;99.90
59067;DHT22;44854;50.838;4.438;2022-09-09T13:57:38;20.80;99.90
59067;DHT22;44854;50.838;4.438;2022-09-09T14:00:04;20.90;99.90
59067;DHT22;44854;50.838;4.438;2022-09-09T14:02:31;21.10;99.90
59067;DHT22;44854;50.838;4.438;2022-09-09T14:04:56;21.00;99.90
59067;DHT22;44854;50.838;4.438;2022-09-09T14:07:22;21.10;99.90
59067;DHT22;44854;50.838;4.438;2022-09-09T14:09:47;21.20;99.90
59067;DHT22;44854;50.838;4.438;2022-09-09T14:12:15;21.00;99.90
59067;DHT22;44854;50.838;4.438;2022-09-09T14:14:41;20.90;99.90
59067;DHT22;44854;50.838;4.438;2022-09-09T14:17:10;20.70;99.90
59067;DHT22;44854;50.838;4.438;2022-09-09T14:19:35;20.60;99.90
59067;DHT22;44854;50.838;4.438;2022-09-09T14:22:02;20.80;99.90
59067;DHT22;44854;50.838;4.438;2022-09-09T14:24:28;20.80;99.90
59067;DHT22;44854;50.838;4.438;2022-09-09T14:26:53;20.70;99.90
59067;DHT22;44854;50.838;4.438;2022-09-09T14:29:19;20.50;99.90
59067;DHT22;44854;50.838;4.438;2022-09-09T14:31:45;20.30;99.90
59067;DHT22;44854;50.838;4.438;2022-09-09T14:34:10;20.20;99.90
59067;DHT22;44854;50.838;4.438;2022-09-09T14:36:36;20.40;99.90
59067;DHT22;44854;50.838;4.438;2022-09-09T14:39:02;20.40;99.90
59067;DHT22;44854;50.838;4.438;2022-09-09T14:41:29;20.50;99.90
59067;DHT22;44854;50.838;4.438;2022-09-09T14:43:55;20.70;99.90
59067;DHT22;44854;50.838;4.438;2022-09-09T14:46:21;20.70;99.90
59067;DHT22;44854;50.838;4.438;2022-09-09T14:48:47;20.50;99.90
59067;DHT22;44854;50.838;4.438;2022-09-09T14:51:16;20.60;99.90
59067;DHT22;44854;50.838;4.438;2022-09-09T14:53:43;20.60;99.90
59067;DHT22;44854;50.838;4.438;2022-09-09T14:56:10;20.50;99.90
59067;DHT22;44854;50.838;4.438;2022-09-09T14:58:36;20.50;99.90
59067;DHT22;44854;50.838;4.438;2022-09-09T15:01:03;20.50;99.90
59067;DHT22;44854;50.838;4.438;2022-09-09T15:03:29;20.50;99.90
59067;DHT22;44854;50.838;4.438;2022-09-09T15:05:55;20.60;99.90
59067;DHT22;44854;50.838;4.438;2022-09-09T15:08:20;20.70;99.90
59067;DHT22;44854;50.838;4.438;2022-09-09T15:10:46;20.60;99.90
59067;DHT22;44854;50.838;4.438;2022-09-09T15:13:14;20.60;99.90
59067;DHT22;44854;50.838;4.438;2022-09-09T15:15:42;20.60;99.90
59067;DHT22;44854;50.838;4.438;2022-09-09T15:18:09;20.60;99.90
59067;DHT22;44854;50.838;4.438;2022-09-09T15:20:34;20.60;99.90
59067;DHT22;44854;50.838;4.438;2022-09-09T15:23:00;20.70;99.90
59067;DHT22;44854;50.838;4.438;2022-09-09T15:25:26;20.90;99.90
59067;DHT22;44854;50.838;4.438;2022-09-09T15:27:52;20.90;99.90
59067;DHT22;44854;50.838;4.438;2022-09-09T15:30:17;21.00;99.90
59067;DHT22;44854;50.838;4.438;2022-09-09T15:32:43;21.20;99.90
59067;DHT22;44854;50.838;4.438;2022-09-09T15:35:08;21.30;99.90
59067;DHT22;44854;50.838;4.438;2022-09-09T15:37:34;21.30;99.90
59067;DHT22;44854;50.838;4.438;2022-09-09T15:39:59;21.10;99.90
59067;DHT22;44854;50.838;4.438;2022-09-09T15:42:26;21.10;99.90
59067;DHT22;44854;50.838;4.438;2022-09-09T15:44:51;21.10;99.90
59067;DHT22;44854;50.838;4.438;2022-09-09T15:47:17;21.00;99.90
59067;DHT22;44854;50.838;4.438;2022-09-09T15:49:43;21.00;99.90
59067;DHT22;44854;50.838;4.438;2022-09-09T15:52:09;21.00;99.90
59067;DHT22;44854;50.838;4.438;2022-09-09T15:54:36;21.00;99.90
59067;DHT22;44854;50.838;4.438;2022-09-09T15:57:06;20.90;99.90
59067;DHT22;44854;50.838;4.438;2022-09-09T15:59:32;20.70;99.90
59067;DHT22;44854;50.838;4.438;2022-09-09T16:01:59;20.80;99.90
59067;DHT22;44854;50.838;4.438;2022-09-09T16:04:25;20.80;99.90
59067;DHT22;44854;50.838;4.438;2022-09-09T16:06:52;20.90;99.90
59067;DHT22;44854;50.838;4.438;2022-09-09T16:09:17;20.80;99.90
59067;DHT22;44854;50.838;4.438;2022-09-09T16:11:43;20.60;99.90
59067;DHT22;44854;50.838;4.438;2022-09-09T16:14:09;20.60;99.90
59067;DHT22;44854;50.838;4.438;2022-09-09T16:16:34;20.60;99.90
59067;DHT22;44854;50.838;4.438;2022-09-09T16:19:02;20.50;99.90
59067;DHT22;44854;50.838;4.438;2022-09-09T16:21:29;20.60;99.90
59067;DHT22;44854;50.838;4.438;2022-09-09T16:23:56;20.60;99.90
59067;DHT22;44854;50.838;4.438;2022-09-09T16:26:22;20.60;99.90
59067;DHT22;44854;50.838;4.438;2022-09-09T16:28:48;20.50;99.90
59067;DHT22;44854;50.838;4.438;2022-09-09T16:31:18;20.30;99.90
59067;DHT22;44854;50.838;4.438;2022-09-09T16:33:45;20.00;99.90
59067;DHT22;44854;50.838;4.438;2022-09-09T16:36:12;20.00;99.90
59067;DHT22;44854;50.838;4.438;2022-09-09T16:38:38;19.90;99.90
59067;DHT22;44854;50.838;4.438;2022-09-09T16:41:05;19.60;99.90
59067;DHT22;44854;50.838;4.438;2022-09-09T16:43:31;19.60;99.90
59067;DHT22;44854;50.838;4.438;2022-09-09T16:45:57;19.60;99.90
59067;DHT22;44854;50.838;4.438;2022-09-09T16:48:22;19.60;99.90
59067;DHT22;44854;50.838;4.438;2022-09-09T16:50:48;19.60;99.90
59067;DHT22;44854;50.838;4.438;2022-09-09T16:53:14;19.60;99.90
59067;DHT22;44854;50.838;4.438;2022-09-09T16:55:40;19.50;99.90
59067;DHT22;44854;50.838;4.438;2022-09-09T16:58:07;19.70;99.90
59067;DHT22;44854;50.838;4.438;2022-09-09T17:00:34;19.60;99.90
59067;DHT22;44854;50.838;4.438;2022-09-09T17:03:00;19.50;99.90
59067;DHT22;44854;50.838;4.438;2022-09-09T17:05:25;19.60;99.90
59067;DHT22;44854;50.838;4.438;2022-09-09T17:07:51;19.60;99.90
59067;DHT22;44854;50.838;4.438;2022-09-09T17:10:17;19.40;99.90
59067;DHT22;44854;50.838;4.438;2022-09-09T17:12:42;19.30;99.90
59067;DHT22;44854;50.838;4.438;2022-09-09T17:15:08;19.30;99.90
59067;DHT22;44854;50.838;4.438;2022-09-09T17:17:34;19.30;99.90
59067;DHT22;44854;50.838;4.438;2022-09-09T17:20:00;19.30;99.90
59067;DHT22;44854;50.838;4.438;2022-09-09T17:22:27;19.40;99.90
59067;DHT22;44854;50.838;4.438;2022-09-09T17:24:53;19.40;99.90
59067;DHT22;44854;50.838;4.438;2022-09-09T17:27:20;19.20;99.90
59067;DHT22;44854;50.838;4.438;2022-09-09T17:29:45;19.20;99.90
59067;DHT22;44854;50.838;4.438;2022-09-09T17:32:11;19.10;99.90
59067;DHT22;44854;50.838;4.438;2022-09-09T17:34:37;19.10;99.90
59067;DHT22;44854;50.838;4.438;2022-09-09T17:37:03;19.10;99.90
59067;DHT22;44854;50.838;4.438;2022-09-09T17:39:31;19.20;99.90
59067;DHT22;44854;50.838;4.438;2022-09-09T17:41:57;19.10;99.90
59067;DHT22;44854;50.838;4.438;2022-09-09T17:44:22;19.00;99.90
59067;DHT22;44854;50.838;4.438;2022-09-09T17:46:48;18.90;99.90
59067;DHT22;44854;50.838;4.438;2022-09-09T17:49:15;18.90;99.90
59067;DHT22;44854;50.838;4.438;2022-09-09T17:51:42;18.90;99.90
59067;DHT22;44854;50.838;4.438;2022-09-09T17:54:15;18.90;99.90
59067;DHT22;44854;50.838;4.438;2022-09-09T17:56:42;18.70;99.90
59067;DHT22;44854;50.838;4.438;2022-09-09T17:59:08;18.80;99.90
59067;DHT22;44854;50.838;4.438;2022-09-09T18:01:35;18.70;99.90
59067;DHT22;44854;50.838;4.438;2022-09-09T18:04:02;18.80;99.90
59067;DHT22;44854;50.838;4.438;2022-09-09T18:06:28;18.70;99.90
59067;DHT22;44854;50.838;4.438;2022-09-09T18:08:56;18.60;99.90
59067;DHT22;44854;50.838;4.438;2022-09-09T18:11:24;18.60;99.90
59067;DHT22;44854;50.838;4.438;2022-09-09T18:13:50;18.60;99.90
59067;DHT22;44854;50.838;4.438;2022-09-09T18:16:16;18.40;99.90
59067;DHT22;44854;50.838;4.438;2022-09-09T18:18:43;18.40;99.90
59067;DHT22;44854;50.838;4.438;2022-09-09T18:21:09;18.40;99.90
59067;DHT22;44854;50.838;4.438;2022-09-09T18:23:36;18.30;99.90
59067;DHT22;44854;50.838;4.438;2022-09-09T18:26:08;18.30;99.90
59067;DHT22;44854;50.838;4.438;2022-09-09T18:28:37;18.30;99.90
59067;DHT22;44854;50.838;4.438;2022-09-09T18:31:07;18.40;99.90
59067;DHT22;44854;50.838;4.438;2022-09-09T18:33:33;18.40;99.90
59067;DHT22;44854;50.838;4.438;2022-09-09T18:36:07;18.30;99.90
59067;DHT22;44854;50.838;4.438;2022-09-09T18:38:33;18.20;99.90
59067;DHT22;44854;50.838;4.438;2022-09-09T18:41:21;18.10;99.90
59067;DHT22;44854;50.838;4.438;2022-09-09T18:43:49;18.00;99.90
59067;DHT22;44854;50.838;4.438;2022-09-09T18:46:15;18.00;99.90
59067;DHT22;44854;50.838;4.438;2022-09-09T18:48:42;18.00;99.90
59067;DHT22;44854;50.838;4.438;2022-09-09T18:51:10;18.00;99.90
59067;DHT22;44854;50.838;4.438;2022-09-09T18:53:36;18.10;99.90
59067;DHT22;44854;50.838;4.438;2022-09-09T18:56:03;18.10;99.90
59067;DHT22;44854;50.838;4.438;2022-09-09T18:58:29;18.10;99.90
59067;DHT22;44854;50.838;4.438;2022-09-09T19:00:56;18.10;99.90
59067;DHT22;44854;50.838;4.438;2022-09-09T19:03:22;18.10;99.90
59067;DHT22;44854;50.838;4.438;2022-09-09T19:05:48;18.20;99.90
59067;DHT22;44854;50.838;4.438;2022-09-09T19:08:16;18.10;99.90
59067;DHT22;44854;50.838;4.438;2022-09-09T19:10:41;18.10;99.90
59067;DHT22;44854;50.838;4.438;2022-09-09T19:13:07;18.10;99.90
59067;DHT22;44854;50.838;4.438;2022-09-09T19:15:35;18.00;99.90
59067;DHT22;44854;50.838;4.438;2022-09-09T19:18:01;18.00;99.90
59067;DHT22;44854;50.838;4.438;2022-09-09T19:20:27;18.10;99.90
59067;DHT22;44854;50.838;4.438;2022-09-09T19:22:52;18.10;99.90
59067;DHT22;44854;50.838;4.438;2022-09-09T19:25:18;18.00;99.90
59067;DHT22;44854;50.838;4.438;2022-09-09T19:27:44;18.00;99.90
59067;DHT22;44854;50.838;4.438;2022-09-09T19:30:11;17.80;99.90
59067;DHT22;44854;50.838;4.438;2022-09-09T19:32:37;17.80;99.90
59067;DHT22;44854;50.838;4.438;2022-09-09T19:35:03;17.90;99.90
59067;DHT22;44854;50.838;4.438;2022-09-09T19:37:30;17.90;99.90
59067;DHT22;44854;50.838;4.438;2022-09-09T19:39:56;17.90;99.90
59067;DHT22;44854;50.838;4.438;2022-09-09T19:42:22;17.90;99.90
59067;DHT22;44854;50.838;4.438;2022-09-09T19:44:48;17.90;99.90
59067;DHT22;44854;50.838;4.438;2022-09-09T19:47:15;17.90;99.90
59067;DHT22;44854;50.838;4.438;2022-09-09T19:49:41;17.90;99.90
59067;DHT22;44854;50.838;4.438;2022-09-09T19:52:06;17.70;99.90
59067;DHT22;44854;50.838;4.438;2022-09-09T19:54:32;17.50;99.90
59067;DHT22;44854;50.838;4.438;2022-09-09T19:56:57;17.50;99.90
59067;DHT22;44854;50.838;4.438;2022-09-09T19:59:25;17.40;99.90
59067;DHT22;44854;50.838;4.438;2022-09-09T20:01:51;17.20;99.90
59067;DHT22;44854;50.838;4.438;2022-09-09T20:04:17;17.30;99.90
59067;DHT22;44854;50.838;4.438;2022-09-09T20:06:43;17.20;99.90
59067;DHT22;44854;50.838;4.438;2022-09-09T20:09:13;17.10;99.90
59067;DHT22;44854;50.838;4.438;2022-09-09T20:11:39;17.20;99.90
59067;DHT22;44854;50.838;4.438;2022-09-09T20:14:04;17.10;99.90
59067;DHT22;44854;50.838;4.438;2022-09-09T20:16:30;17.10;99.90
59067;DHT22;44854;50.838;4.438;2022-09-09T20:19:03;17.10;99.90
59067;DHT22;44854;50.838;4.438;2022-09-09T20:21:33;17.20;99.90
59067;DHT22;44854;50.838;4.438;2022-09-09T20:24:00;17.40;99.90
59067;DHT22;44854;50.838;4.438;2022-09-09T20:26:27;17.40;99.90
59067;DHT22;44854;50.838;4.438;2022-09-09T20:28:55;17.40;99.90
59067;DHT22;44854;50.838;4.438;2022-09-09T20:31:25;17.30;99.90
59067;DHT22;44854;50.838;4.438;2022-09-09T20:33:51;17.30;99.90
59067;DHT22;44854;50.838;4.438;2022-09-09T20:36:35;17.10;99.90
59067;DHT22;44854;50.838;4.438;2022-09-09T20:39:01;17.10;99.90
59067;DHT22;44854;50.838;4.438;2022-09-09T20:41:29;17.10;99.90
59067;DHT22;44854;50.838;4.438;2022-09-09T20:43:58;17.20;99.90
59067;DHT22;44854;50.838;4.438;2022-09-09T20:46:26;17.00;99.90
59067;DHT22;44854;50.838;4.438;2022-09-09T20:48:52;17.00;99.90
59067;DHT22;44854;50.838;4.438;2022-09-09T20:51:22;17.00;99.90
59067;DHT22;44854;50.838;4.438;2022-09-09T20:53:54;17.00;99.90
59067;DHT22;44854;50.838;4.438;2022-09-09T20:56:22;17.00;99.90
59067;DHT22;44854;50.838;4.438;2022-09-09T20:58:47;17.00;99.90
59067;DHT22;44854;50.838;4.438;2022-09-09T21:01:14;17.10;99.90
59067;DHT22;44854;50.838;4.438;2022-09-09T21:03:40;17.10;99.90
59067;DHT22;44854;50.838;4.438;2022-09-09T21:06:05;17.10;99.90
59067;DHT22;44854;50.838;4.438;2022-09-09T21:08:31;17.20;99.90
59067;DHT22;44854;50.838;4.438;2022-09-09T21:10:57;17.20;99.90
59067;DHT22;44854;50.838;4.438;2022-09-09T21:13:23;17.30;99.90
59067;DHT22;44854;50.838;4.438;2022-09-09T21:15:50;17.20;99.90
59067;DHT22;44854;50.838;4.438;2022-09-09T21:18:16;17.20;99.90
59067;DHT22;44854;50.838;4.438;2022-09-09T21:20:42;17.20;99.90
59067;DHT22;44854;50.838;4.438;2022-09-09T21:23:09;17.20;99.90
59067;DHT22;44854;50.838;4.438;2022-09-09T21:25:34;17.20;99.90
59067;DHT22;44854;50.838;4.438;2022-09-09T21:28:00;17.10;99.90
59067;DHT22;44854;50.838;4.438;2022-09-09T21:30:26;17.10;99.90
59067;DHT22;44854;50.838;4.438;2022-09-09T21:32:53;17.00;99.90
59067;DHT22;44854;50.838;4.438;2022-09-09T21:35:19;17.00;99.90
59067;DHT22;44854;50.838;4.438;2022-09-09T21:37:45;17.00;99.90
59067;DHT22;44854;50.838;4.438;2022-09-09T21:40:11;17.00;99.90
59067;DHT22;44854;50.838;4.438;2022-09-09T21:42:37;17.00;99.90
59067;DHT22;44854;50.838;4.438;2022-09-09T21:45:03;17.00;99.90
59067;DHT22;44854;50.838;4.438;2022-09-09T21:47:31;16.90;99.90
59067;DHT22;44854;50.838;4.438;2022-09-09T21:49:56;16.80;99.90
59067;DHT22;44854;50.838;4.438;2022-09-09T21:52:22;16.80;99.90
59067;DHT22;44854;50.838;4.438;2022-09-09T21:54:48;16.80;99.90
59067;DHT22;44854;50.838;4.438;2022-09-09T21:57:14;16.90;99.90
59067;DHT22;44854;50.838;4.438;2022-09-09T21:59:40;16.90;99.90
